Time;durP1;ratioP1;P1;durP2;ratioP2;P2;SDS_P1;SDS_P2;PMS_P1;PMS_P2;Temp;Humidity;BMP_temperature;BMP_pressure;BME280_temperature;BME280_humidity;BME280_pressure;Samples;Min_cycle;Max_cycle;Signal;HPM_P1;HPM_P2
2023/09/08 00:00:00;;;;;;;15.40;12.07;;;16.90;99.90;;;;;;2092454;28;20113;-76
2023/09/08 00:01:01;;;;;;;15.45;11.93;;;16.90;99.90;;;;;;2091535;28;20025;-78
2023/09/08 00:02:02;;;;;;;15.95;11.73;;;16.90;99.90;;;;;;2095465;28;20186;-77
2023/09/08 00:03:03;;;;;;;18.13;12.70;;;16.80;99.90;;;;;;2095064;28;20024;-77
2023/09/08 00:04:04;;;;;;;14.88;12.30;;;16.90;99.90;;;;;;2083098;28;20472;-77
2023/09/08 00:05:04;;;;;;;16.00;12.18;;;16.80;99.90;;;;;;2085889;28;20037;-77
2023/09/08 00:06:05;;;;;;;15.77;12.20;;;16.80;99.90;;;;;;2094736;28;20414;-78
2023/09/08 00:07:05;;;;;;;15.07;11.82;;;16.80;99.90;;;;;;2086533;28;20060;-77
2023/09/08 00:08:06;;;;;;;16.20;12.55;;;16.80;99.90;;;;;;2089513;28;20035;-77
2023/09/08 00:09:07;;;;;;;16.60;12.13;;;16.80;99.90;;;;;;2094390;28;20020;-77
2023/09/08 00:10:08;;;;;;;15.43;12.30;;;16.80;99.90;;;;;;2084574;28;20168;-74
2023/09/08 00:11:09;;;;;;;16.38;12.30;;;16.80;99.90;;;;;;2085071;28;20075;-65
2023/09/08 00:12:09;;;;;;;14.82;11.85;;;16.80;99.90;;;;;;2093770;28;20297;-84
2023/09/08 00:13:10;;;;;;;14.95;12.20;;;16.80;99.90;;;;;;2085690;28;20090;-66
2023/09/08 00:14:10;;;;;;;16.20;12.00;;;16.70;99.90;;;;;;2088792;28;20079;-82
2023/09/08 00:15:11;;;;;;;14.75;11.77;;;16.70;99.90;;;;;;2091174;28;20051;-77
2023/09/08 00:16:12;;;;;;;17.95;12.00;;;16.70;99.90;;;;;;2084857;28;20044;-78
2023/09/08 00:17:12;;;;;;;17.30;11.95;;;16.70;99.90;;;;;;2089856;28;20496;-78
2023/09/08 00:18:13;;;;;;;14.73;11.73;;;16.70;99.90;;;;;;2090558;28;20418;-77
2023/09/08 00:19:14;;;;;;;13.95;11.65;;;16.70;99.90;;;;;;2078074;28;20022;-77
2023/09/08 00:20:15;;;;;;;15.55;12.30;;;16.70;99.90;;;;;;2093055;28;20637;-78
2023/09/08 00:21:15;;;;;;;16.30;12.25;;;16.70;99.90;;;;;;2082590;28;20025;-78
2023/09/08 00:22:16;;;;;;;15.65;11.70;;;16.70;99.90;;;;;;2084609;28;20029;-78
2023/09/08 00:23:16;;;;;;;14.40;11.63;;;16.70;99.90;;;;;;2084826;28;20039;-78
2023/09/08 00:24:19;;;;;;;14.80;11.43;;;16.70;99.90;;;;;;2085154;28;20029;-78
2023/09/08 00:25:19;;;;;;;14.95;11.80;;;16.70;99.90;;;;;;2092034;28;20562;-78
2023/09/08 00:26:20;;;;;;;14.13;11.57;;;16.70;99.90;;;;;;2087763;28;20040;-78
2023/09/08 00:27:21;;;;;;;15.43;11.48;;;16.70;99.90;;;;;;2085823;28;20028;-80
2023/09/08 00:28:22;;;;;;;15.60;11.65;;;16.70;99.90;;;;;;2090514;28;20593;-80
2023/09/08 00:29:22;;;;;;;17.02;12.20;;;16.70;99.90;;;;;;2089605;28;20027;-79
2023/09/08 00:30:23;;;;;;;14.63;11.52;;;16.70;99.90;;;;;;2089531;28;20101;-79
2023/09/08 00:31:24;;;;;;;16.38;11.75;;;16.70;99.90;;;;;;2094046;28;20542;-81
2023/09/08 00:32:24;;;;;;;16.15;11.63;;;16.70;99.90;;;;;;2088079;28;20041;-78
2023/09/08 00:33:25;;;;;;;12.57;11.18;;;16.70;99.90;;;;;;2088166;28;20027;-78
2023/09/08 00:34:25;;;;;;;15.02;11.88;;;16.60;99.90;;;;;;2095695;28;20021;-79
2023/09/08 00:35:26;;;;;;;13.85;11.38;;;16.70;99.90;;;;;;2092252;28;20031;-78
2023/09/08 00:36:27;;;;;;;15.48;11.60;;;16.70;99.90;;;;;;2089206;28;20044;-79
2023/09/08 00:37:27;;;;;;;14.35;11.93;;;16.60;99.90;;;;;;2092224;28;20120;-78
2023/09/08 00:38:28;;;;;;;15.38;11.63;;;16.60;99.90;;;;;;2087092;28;20082;-77
2023/09/08 00:39:28;;;;;;;14.73;11.75;;;16.60;99.90;;;;;;2076283;28;20056;-78
2023/09/08 00:40:29;;;;;;;15.85;11.38;;;16.60;99.90;;;;;;2090595;28;20103;-78
2023/09/08 00:41:30;;;;;;;14.68;12.00;;;16.60;99.90;;;;;;2092524;28;20119;-79
2023/09/08 00:42:31;;;;;;;14.63;12.23;;;16.60;99.90;;;;;;2084785;28;20009;-78
2023/09/08 00:43:32;;;;;;;15.93;12.27;;;16.60;99.90;;;;;;2083523;28;20369;-79
2023/09/08 00:44:33;;;;;;;16.75;11.75;;;16.50;99.90;;;;;;2075061;28;20168;-78
2023/09/08 00:45:40;;;;;;;15.45;11.43;;;16.50;99.90;;;;;;2083958;28;20032;-77
2023/09/08 00:46:40;;;;;;;16.25;12.02;;;16.50;99.90;;;;;;2081057;28;20253;-78
2023/09/08 00:47:41;;;;;;;16.02;11.80;;;16.50;99.90;;;;;;2078290;28;20040;-78
2023/09/08 00:48:42;;;;;;;15.00;11.95;;;16.50;99.90;;;;;;2078450;28;20033;-80
2023/09/08 00:49:43;;;;;;;14.05;11.52;;;16.50;99.90;;;;;;2078368;28;20025;-79
2023/09/08 00:50:43;;;;;;;15.20;11.40;;;16.50;99.90;;;;;;2082951;28;20028;-79
2023/09/08 00:51:44;;;;;;;17.52;11.73;;;16.40;99.90;;;;;;2079042;28;20595;-79
2023/09/08 00:52:45;;;;;;;14.07;11.55;;;16.40;99.90;;;;;;2094425;28;20017;-80
2023/09/08 00:53:45;;;;;;;13.88;11.57;;;16.40;99.90;;;;;;2096127;28;20522;-79
2023/09/08 00:54:46;;;;;;;13.90;11.77;;;16.40;99.90;;;;;;2085761;28;20029;-79
2023/09/08 00:55:47;;;;;;;15.05;12.00;;;16.40;99.90;;;;;;2087446;28;20025;-79
2023/09/08 00:56:53;;;;;;;14.10;11.80;;;16.40;99.90;;;;;;2093799;28;20016;-78
2023/09/08 00:57:54;;;;;;;14.93;12.10;;;16.40;99.90;;;;;;2086807;28;20029;-78
2023/09/08 00:58:55;;;;;;;16.95;12.48;;;16.40;99.90;;;;;;2093613;28;20031;-78
2023/09/08 00:59:55;;;;;;;15.35;11.63;;;16.40;99.90;;;;;;2085224;28;20045;-79
2023/09/08 01:00:58;;;;;;;15.13;11.75;;;16.30;99.90;;;;;;2084508;28;20040;-79
2023/09/08 01:01:58;;;;;;;14.55;11.90;;;16.30;99.90;;;;;;2091336;28;20035;-78
2023/09/08 01:03:00;;;;;;;14.35;11.98;;;16.30;99.90;;;;;;2075724;28;20029;-78
2023/09/08 01:04:01;;;;;;;13.93;11.18;;;16.30;99.90;;;;;;2071751;28;20054;-78
2023/09/08 01:05:02;;;;;;;16.75;12.40;;;16.30;99.90;;;;;;2087731;28;20041;-77
2023/09/08 01:06:04;;;;;;;14.50;11.90;;;16.30;99.90;;;;;;2092176;28;20024;-77
2023/09/08 01:07:04;;;;;;;14.73;12.07;;;16.30;99.90;;;;;;2084509;28;20187;-78
2023/09/08 01:08:06;;;;;;;15.43;12.07;;;16.30;99.90;;;;;;2085592;28;20033;-77
2023/09/08 01:09:07;;;;;;;15.40;11.68;;;16.20;99.90;;;;;;2084053;28;20120;-77
2023/09/08 01:10:08;;;;;;;15.43;12.15;;;16.20;99.90;;;;;;2084074;28;20055;-77
2023/09/08 01:11:09;;;;;;;16.52;11.88;;;16.20;99.90;;;;;;2086968;28;20029;-77
2023/09/08 01:12:10;;;;;;;14.25;11.93;;;16.20;99.90;;;;;;2091793;28;20082;-77
2023/09/08 01:13:11;;;;;;;13.65;11.98;;;16.20;99.90;;;;;;2087099;28;20017;-77
2023/09/08 01:14:13;;;;;;;16.95;11.90;;;16.20;99.90;;;;;;2089693;28;20061;-78
2023/09/08 01:15:14;;;;;;;17.75;12.32;;;16.20;99.90;;;;;;2091557;28;20024;-78
2023/09/08 01:16:14;;;;;;;15.65;12.27;;;16.20;99.90;;;;;;2078578;28;20025;-78
2023/09/08 01:17:16;;;;;;;14.45;12.32;;;16.10;99.90;;;;;;2073611;28;20032;-78
2023/09/08 01:18:16;;;;;;;13.75;11.23;;;16.10;99.90;;;;;;2090525;28;20518;-78
2023/09/08 01:19:18;;;;;;;15.88;11.60;;;16.10;99.90;;;;;;2100707;28;20040;-79
2023/09/08 01:20:24;;;;;;;13.85;11.68;;;16.10;99.90;;;;;;2093727;28;20043;-77
2023/09/08 01:22:03;;;;;;;16.33;12.35;;;16.10;99.90;;;;;;2093275;28;20036;-77
2023/09/08 01:23:18;;;;;;;14.00;11.85;;;16.10;99.90;;;;;;2086957;28;20466;-79
2023/09/08 01:24:27;;;;;;;14.93;11.93;;;16.10;99.90;;;;;;2083617;28;20144;-78
2023/09/08 01:25:29;;;;;;;13.35;11.43;;;16.10;99.90;;;;;;2095875;28;20376;-79
2023/09/08 01:26:36;;;;;;;15.20;11.80;;;16.10;99.90;;;;;;2090318;28;20110;-78
2023/09/08 01:27:38;;;;;;;15.68;11.90;;;16.10;99.90;;;;;;2085454;28;20145;-78
2023/09/08 01:28:40;;;;;;;15.10;11.98;;;16.00;99.90;;;;;;2092068;28;20032;-77
2023/09/08 01:29:41;;;;;;;14.52;11.50;;;16.00;99.90;;;;;;2090872;28;20486;-78
2023/09/08 01:30:43;;;;;;;15.75;11.63;;;16.00;99.90;;;;;;2092180;28;20440;-79
2023/09/08 01:31:43;;;;;;;14.70;12.50;;;16.00;99.90;;;;;;2091397;28;20053;-78
2023/09/08 01:32:45;;;;;;;14.20;11.90;;;16.00;99.90;;;;;;2080381;28;20083;-79
2023/09/08 01:33:46;;;;;;;16.38;11.88;;;16.00;99.90;;;;;;2094099;28;20020;-78
2023/09/08 01:34:46;;;;;;;17.10;12.02;;;16.00;99.90;;;;;;2086859;28;20035;-79
2023/09/08 01:35:48;;;;;;;20.00;12.45;;;16.00;99.90;;;;;;2083090;28;20084;-79
2023/09/08 01:36:49;;;;;;;14.07;12.00;;;16.00;99.90;;;;;;2083046;28;20103;-78
2023/09/08 01:37:49;;;;;;;13.27;11.80;;;16.00;99.90;;;;;;2081106;28;20116;-78
2023/09/08 01:38:50;;;;;;;13.48;11.52;;;16.00;99.90;;;;;;2083934;28;20092;-78
2023/09/08 01:39:51;;;;;;;13.40;11.68;;;16.00;99.90;;;;;;2089246;28;20074;-79
2023/09/08 01:40:51;;;;;;;14.27;12.00;;;16.00;99.90;;;;;;2091510;28;20312;-78
2023/09/08 01:41:52;;;;;;;15.60;11.52;;;16.00;99.90;;;;;;2091290;28;20146;-78
2023/09/08 01:42:53;;;;;;;14.20;11.75;;;16.00;99.90;;;;;;2093748;28;20475;-78
2023/09/08 01:43:54;;;;;;;14.55;11.85;;;16.00;99.90;;;;;;2088776;28;20079;-77
2023/09/08 01:44:55;;;;;;;15.27;12.25;;;16.00;99.90;;;;;;2090384;28;20404;-78
2023/09/08 01:45:55;;;;;;;15.65;12.15;;;15.90;99.90;;;;;;2092363;28;20021;-78
2023/09/08 01:46:57;;;;;;;14.23;11.88;;;15.90;99.90;;;;;;2091311;28;20649;-78
2023/09/08 01:47:57;;;;;;;15.65;11.75;;;15.90;99.90;;;;;;2079862;28;20500;-78
2023/09/08 01:48:58;;;;;;;15.00;12.25;;;15.90;99.90;;;;;;2086401;28;20049;-78
2023/09/08 01:49:59;;;;;;;15.93;12.55;;;15.90;99.90;;;;;;2089918;28;20036;-78
2023/09/08 01:51:00;;;;;;;17.42;12.18;;;15.90;99.90;;;;;;2098392;28;20027;-77
2023/09/08 01:52:00;;;;;;;16.02;12.30;;;15.90;99.90;;;;;;2085748;28;20040;-78
2023/09/08 01:53:01;;;;;;;14.40;11.88;;;15.90;99.90;;;;;;2076955;28;20477;-78
2023/09/08 01:54:02;;;;;;;15.68;12.45;;;15.90;99.90;;;;;;2085083;28;20028;-78
2023/09/08 01:55:03;;;;;;;15.32;12.15;;;15.90;99.90;;;;;;2082460;28;20057;-78
2023/09/08 01:56:04;;;;;;;15.38;12.10;;;15.90;99.90;;;;;;2083333;28;20043;-76
2023/09/08 01:57:05;;;;;;;15.32;12.30;;;15.90;99.90;;;;;;2080805;28;20163;-70
2023/09/08 01:58:05;;;;;;;16.77;12.55;;;15.90;99.90;;;;;;2079773;28;20028;-69
2023/09/08 01:59:06;;;;;;;14.15;12.07;;;15.90;99.90;;;;;;2084983;28;20028;-69
2023/09/08 02:00:07;;;;;;;15.45;11.77;;;15.90;99.90;;;;;;2080998;28;20036;-71
2023/09/08 02:01:13;;;;;;;14.93;12.40;;;15.90;99.90;;;;;;2088040;28;20041;-71
2023/09/08 02:02:14;;;;;;;14.63;11.82;;;15.90;99.90;;;;;;2091741;28;20033;-71
2023/09/08 02:03:15;;;;;;;14.82;11.50;;;15.80;99.90;;;;;;2084080;28;20111;-70
2023/09/08 02:04:15;;;;;;;15.73;12.10;;;15.80;99.90;;;;;;2090819;28;20035;-71
2023/09/08 02:05:16;;;;;;;16.05;11.52;;;15.80;99.90;;;;;;2093881;28;20071;-70
2023/09/08 02:06:17;;;;;;;14.30;11.90;;;15.80;99.90;;;;;;2089419;28;20108;-70
2023/09/08 02:07:17;;;;;;;15.27;12.32;;;15.80;99.90;;;;;;2088386;28;20025;-73
2023/09/08 02:08:18;;;;;;;14.52;12.38;;;15.80;99.90;;;;;;2091865;28;20036;-73
2023/09/08 02:09:19;;;;;;;13.57;11.57;;;15.80;99.90;;;;;;2091595;28;20026;-73
2023/09/08 02:10:20;;;;;;;16.10;12.45;;;15.80;99.90;;;;;;2085900;28;20519;-73
2023/09/08 02:11:21;;;;;;;15.18;12.13;;;15.80;99.90;;;;;;2093201;28;20017;-75
2023/09/08 02:12:23;;;;;;;17.27;12.63;;;15.80;99.90;;;;;;2092706;28;20152;-73
2023/09/08 02:13:24;;;;;;;16.88;12.02;;;15.80;99.90;;;;;;2086568;28;21019;-73
2023/09/08 02:14:24;;;;;;;15.95;12.10;;;15.80;99.90;;;;;;2093474;28;20037;-73
2023/09/08 02:15:25;;;;;;;13.45;11.82;;;15.80;99.90;;;;;;2092039;28;20033;-73
2023/09/08 02:16:25;;;;;;;15.88;12.00;;;15.70;99.90;;;;;;2086142;28;20092;-73
2023/09/08 02:17:26;;;;;;;13.77;11.32;;;15.80;99.90;;;;;;2092134;28;20545;-73
2023/09/08 02:18:28;;;;;;;17.77;12.43;;;15.80;99.90;;;;;;2090736;28;20029;-73
2023/09/08 02:19:28;;;;;;;16.17;11.82;;;15.70;99.90;;;;;;2086509;28;20032;-73
2023/09/08 02:20:29;;;;;;;17.80;11.70;;;15.80;99.90;;;;;;2083973;28;20025;-73
2023/09/08 02:21:29;;;;;;;15.00;11.98;;;15.80;99.90;;;;;;2090716;28;20024;-74
2023/09/08 02:22:30;;;;;;;15.57;11.98;;;15.80;99.90;;;;;;2094392;28;20032;-73
2023/09/08 02:23:31;;;;;;;15.55;11.57;;;15.80;99.90;;;;;;2087736;28;20024;-75
2023/09/08 02:24:31;;;;;;;15.15;12.13;;;15.70;99.90;;;;;;2087943;28;20021;-73
2023/09/08 02:25:32;;;;;;;14.48;11.77;;;15.70;99.90;;;;;;2092039;28;20032;-73
2023/09/08 02:26:33;;;;;;;15.30;11.73;;;15.70;99.90;;;;;;2088214;28;20150;-75
2023/09/08 02:27:34;;;;;;;17.25;11.85;;;15.70;99.90;;;;;;2087195;28;20094;-73
2023/09/08 02:28:35;;;;;;;14.55;11.85;;;15.70;99.90;;;;;;2079526;28;20506;-72
2023/09/08 02:29:36;;;;;;;15.50;11.38;;;15.70;99.90;;;;;;2076883;28;20021;-73
2023/09/08 02:30:36;;;;;;;15.65;11.57;;;15.70;99.90;;;;;;2086627;28;20048;-74
2023/09/08 02:31:37;;;;;;;14.52;11.50;;;15.70;99.90;;;;;;2083697;28;20128;-72
2023/09/08 02:32:42;;;;;;;14.25;11.52;;;15.70;99.90;;;;;;2083410;28;20471;-75
2023/09/08 02:33:43;;;;;;;13.57;11.20;;;15.70;99.90;;;;;;2091200;28;20537;-73
2023/09/08 02:34:44;;;;;;;15.27;11.93;;;15.70;99.90;;;;;;2090897;28;20070;-73
2023/09/08 02:35:46;;;;;;;14.57;11.93;;;15.70;99.90;;;;;;2090496;28;20063;-73
2023/09/08 02:36:50;;;;;;;15.15;11.80;;;15.70;99.90;;;;;;2088549;28;20430;-74
2023/09/08 02:37:52;;;;;;;14.50;11.88;;;15.70;99.90;;;;;;2084497;28;20025;-73
2023/09/08 02:38:54;;;;;;;13.70;11.50;;;15.60;99.90;;;;;;2083061;28;20079;-73
2023/09/08 02:39:54;;;;;;;15.63;11.77;;;15.60;99.90;;;;;;2076297;28;20032;-75
2023/09/08 02:40:55;;;;;;;14.82;11.38;;;15.60;99.90;;;;;;2090219;28;20976;-73
2023/09/08 02:41:56;;;;;;;15.10;11.40;;;15.60;99.90;;;;;;2090688;28;20103;-73
2023/09/08 02:42:56;;;;;;;13.85;11.13;;;15.60;99.90;;;;;;2088094;28;20032;-73
2023/09/08 02:43:57;;;;;;;14.40;10.95;;;15.60;99.90;;;;;;2085663;28;20039;-73
2023/09/08 02:44:58;;;;;;;14.52;11.93;;;15.60;99.90;;;;;;2082719;28;20118;-73
2023/09/08 02:45:58;;;;;;;13.95;11.45;;;15.60;99.90;;;;;;2075601;28;20029;-73
2023/09/08 02:46:59;;;;;;;15.48;11.60;;;15.60;99.90;;;;;;2083240;28;20032;-74
2023/09/08 02:48:00;;;;;;;13.98;11.40;;;15.60;99.90;;;;;;2084546;28;20021;-73
2023/09/08 02:49:01;;;;;;;16.33;11.68;;;15.60;99.90;;;;;;2091535;28;20156;-73
2023/09/08 02:50:04;;;;;;;14.38;11.57;;;15.60;99.90;;;;;;2089333;28;20029;-73
2023/09/08 02:51:07;;;;;;;13.73;11.30;;;15.60;99.90;;;;;;2085378;28;20155;-72
2023/09/08 02:52:07;;;;;;;14.45;11.50;;;15.60;99.90;;;;;;2090119;28;20055;-73
2023/09/08 02:53:09;;;;;;;14.63;11.63;;;15.60;99.90;;;;;;2093005;28;20101;-72
2023/09/08 02:54:09;;;;;;;13.50;11.68;;;15.60;99.90;;;;;;2085546;28;20071;-72
2023/09/08 02:55:12;;;;;;;14.05;11.65;;;15.60;99.90;;;;;;2091219;28;20221;-73
2023/09/08 02:56:12;;;;;;;13.75;11.10;;;15.60;99.90;;;;;;2093170;28;20036;-73
2023/09/08 02:57:13;;;;;;;12.93;11.32;;;15.60;99.90;;;;;;2094397;28;20039;-73
2023/09/08 02:58:14;;;;;;;14.75;11.50;;;15.60;99.90;;;;;;2079381;28;20028;-73
2023/09/08 02:59:16;;;;;;;13.93;11.90;;;15.60;99.90;;;;;;2077230;28;20021;-72
2023/09/08 03:00:17;;;;;;;16.20;12.13;;;15.60;99.90;;;;;;2086500;28;20080;-76
2023/09/08 03:01:20;;;;;;;14.30;11.40;;;15.60;99.90;;;;;;2081709;28;20021;-75
2023/09/08 03:02:20;;;;;;;14.75;12.10;;;15.60;99.90;;;;;;2085018;28;20067;-73
2023/09/08 03:03:21;;;;;;;15.15;11.68;;;15.60;99.90;;;;;;2086899;28;20472;-74
2023/09/08 03:04:22;;;;;;;14.10;11.80;;;15.60;99.90;;;;;;2084692;28;20431;-74
2023/09/08 03:05:23;;;;;;;14.65;11.63;;;15.60;99.90;;;;;;2081907;28;20507;-73
2023/09/08 03:06:23;;;;;;;15.63;12.05;;;15.60;99.90;;;;;;2092487;28;20085;-74
2023/09/08 03:07:24;;;;;;;15.55;12.02;;;15.60;99.90;;;;;;2082518;28;20032;-74
2023/09/08 03:08:25;;;;;;;16.58;11.98;;;15.60;99.90;;;;;;2082869;28;20900;-74
2023/09/08 03:09:25;;;;;;;14.40;11.65;;;15.60;99.90;;;;;;2083320;28;20036;-74
2023/09/08 03:10:28;;;;;;;14.85;11.45;;;15.60;99.90;;;;;;2074993;28;20033;-75
2023/09/08 03:11:29;;;;;;;14.85;11.35;;;15.50;99.90;;;;;;2077027;28;20320;-74
2023/09/08 03:12:30;;;;;;;13.43;11.35;;;15.60;99.90;;;;;;2083588;28;20047;-74
2023/09/08 03:13:33;;;;;;;16.25;11.50;;;15.60;99.90;;;;;;2088772;28;20120;-75
2023/09/08 03:14:34;;;;;;;15.82;12.45;;;15.60;99.90;;;;;;2084751;28;20025;-73
2023/09/08 03:15:35;;;;;;;16.65;12.23;;;15.60;99.90;;;;;;2093803;28;20016;-74
2023/09/08 03:16:35;;;;;;;16.35;12.10;;;15.60;99.90;;;;;;2094590;28;20020;-73
2023/09/08 03:17:38;;;;;;;14.55;11.60;;;15.50;99.90;;;;;;2086566;28;20127;-72
2023/09/08 03:18:38;;;;;;;18.88;13.00;;;15.50;99.90;;;;;;2092689;28;20475;-73
2023/09/08 03:19:39;;;;;;;17.17;12.30;;;15.50;99.90;;;;;;2094171;28;20119;-73
2023/09/08 03:20:41;;;;;;;16.02;12.40;;;15.50;99.90;;;;;;2091779;28;20533;-73
2023/09/08 03:21:42;;;;;;;15.52;11.60;;;15.50;99.90;;;;;;2086391;28;20116;-72
2023/09/08 03:22:42;;;;;;;13.50;11.40;;;15.50;99.90;;;;;;2089509;28;20443;-73
2023/09/08 03:23:44;;;;;;;16.35;12.00;;;15.50;99.90;;;;;;2094624;28;20612;-71
2023/09/08 03:24:44;;;;;;;14.60;11.40;;;15.50;99.90;;;;;;2090097;28;20028;-74
2023/09/08 03:25:45;;;;;;;13.93;11.57;;;15.50;99.90;;;;;;2092532;28;20115;-74
2023/09/08 03:26:45;;;;;;;15.45;12.25;;;15.50;99.90;;;;;;2090339;28;20032;-72
2023/09/08 03:27:46;;;;;;;15.20;11.57;;;15.50;99.90;;;;;;2088390;28;20094;-73
2023/09/08 03:28:46;;;;;;;15.60;11.73;;;15.50;99.90;;;;;;2086918;28;20349;-74
2023/09/08 03:29:47;;;;;;;17.13;11.43;;;15.50;99.90;;;;;;2087919;28;20020;-73
2023/09/08 03:30:48;;;;;;;14.18;11.70;;;15.40;99.90;;;;;;2086468;28;20029;-73
2023/09/08 03:31:48;;;;;;;15.30;12.60;;;15.40;99.90;;;;;;2091603;28;20114;-73
2023/09/08 03:32:49;;;;;;;17.60;13.27;;;15.40;99.90;;;;;;2094315;28;20033;-73
2023/09/08 03:33:49;;;;;;;14.75;12.10;;;15.40;99.90;;;;;;2089276;28;20128;-73
2023/09/08 03:34:50;;;;;;;16.58;13.68;;;15.40;99.90;;;;;;2085092;28;20020;-75
2023/09/08 03:35:51;;;;;;;16.45;12.45;;;15.40;99.90;;;;;;2078639;28;20032;-73
2023/09/08 03:36:53;;;;;;;14.50;12.07;;;15.40;99.90;;;;;;2083836;28;20021;-73
2023/09/08 03:37:54;;;;;;;13.52;11.52;;;15.40;99.90;;;;;;2092969;28;20579;-73
2023/09/08 03:38:57;;;;;;;14.30;12.32;;;15.40;99.90;;;;;;2090352;28;20017;-73
2023/09/08 03:39:58;;;;;;;15.63;12.65;;;15.40;99.90;;;;;;2090128;28;20033;-73
2023/09/08 03:40:59;;;;;;;14.77;12.15;;;15.40;99.90;;;;;;2078070;28;20555;-73
2023/09/08 03:42:01;;;;;;;15.65;12.93;;;15.40;99.90;;;;;;2083886;28;20406;-73
2023/09/08 03:43:03;;;;;;;16.65;12.45;;;15.30;99.90;;;;;;2080313;28;20028;-73
2023/09/08 03:44:03;;;;;;;16.65;12.30;;;15.30;99.90;;;;;;2085556;28;20966;-73
2023/09/08 03:45:05;;;;;;;18.13;12.50;;;15.30;99.90;;;;;;2089463;28;20438;-74
2023/09/08 03:46:05;;;;;;;14.73;12.13;;;15.30;99.90;;;;;;2086998;28;20037;-73
2023/09/08 03:47:06;;;;;;;15.35;12.18;;;15.30;99.90;;;;;;2071649;28;20029;-73
2023/09/08 03:48:07;;;;;;;14.77;11.82;;;15.30;99.90;;;;;;2081547;28;20017;-73
2023/09/08 03:49:08;;;;;;;17.70;12.35;;;15.20;99.90;;;;;;2078961;28;20451;-73
2023/09/08 03:50:09;;;;;;;14.88;11.95;;;15.20;99.90;;;;;;2069440;28;20100;-75
2023/09/08 03:51:10;;;;;;;18.10;12.88;;;15.20;99.90;;;;;;2093299;28;20021;-74
2023/09/08 03:52:12;;;;;;;16.92;12.93;;;15.20;99.90;;;;;;2085221;28;20083;-75
2023/09/08 03:53:13;;;;;;;16.17;12.73;;;15.20;99.90;;;;;;2088918;28;20108;-73
2023/09/08 03:54:14;;;;;;;16.30;11.90;;;15.20;99.90;;;;;;2090956;28;20492;-75
2023/09/08 03:55:14;;;;;;;15.00;12.30;;;15.20;99.90;;;;;;2089851;28;20111;-70
2023/09/08 03:56:15;;;;;;;13.93;11.80;;;15.20;99.90;;;;;;2084486;28;20040;-73
2023/09/08 03:57:15;;;;;;;16.73;12.52;;;15.20;99.90;;;;;;2082492;28;20018;-74
2023/09/08 03:58:16;;;;;;;13.98;11.82;;;15.20;99.90;;;;;;2072259;28;20026;-74
2023/09/08 03:59:16;;;;;;;13.45;11.35;;;15.20;99.90;;;;;;2082725;28;20427;-74
2023/09/08 04:00:21;;;;;;;15.43;11.65;;;15.20;99.90;;;;;;2091436;28;20085;-73
2023/09/08 04:01:21;;;;;;;16.00;12.15;;;15.20;99.90;;;;;;2093619;28;20017;-73
2023/09/08 04:02:22;;;;;;;16.73;12.77;;;15.20;99.90;;;;;;2087479;28;20126;-73
2023/09/08 04:03:23;;;;;;;14.60;12.15;;;15.20;99.90;;;;;;2086269;28;20025;-73
2023/09/08 04:04:23;;;;;;;15.50;11.82;;;15.10;99.90;;;;;;2084619;28;20055;-73
2023/09/08 04:05:24;;;;;;;16.08;12.05;;;15.10;99.90;;;;;;2084882;28;20388;-74
2023/09/08 04:06:24;;;;;;;19.33;12.55;;;15.10;99.90;;;;;;2093987;28;20086;-74
2023/09/08 04:07:25;;;;;;;14.40;12.00;;;15.10;99.90;;;;;;2096396;28;20371;-73
2023/09/08 04:08:26;;;;;;;14.90;11.98;;;15.10;99.90;;;;;;2094501;28;20085;-74
2023/09/08 04:09:28;;;;;;;16.42;12.23;;;15.10;99.90;;;;;;2095191;28;20027;-72
2023/09/08 04:10:28;;;;;;;13.35;11.82;;;15.00;99.90;;;;;;2093702;28;20215;-73
2023/09/08 04:11:29;;;;;;;15.57;12.75;;;15.00;99.90;;;;;;2094035;28;20024;-73
2023/09/08 04:12:31;;;;;;;14.18;11.98;;;15.00;99.90;;;;;;2086082;28;20487;-73
2023/09/08 04:13:31;;;;;;;17.17;12.30;;;15.00;99.90;;;;;;2092779;28;20021;-73
2023/09/08 04:14:33;;;;;;;15.48;11.80;;;15.00;99.90;;;;;;2085514;28;20025;-73
2023/09/08 04:15:35;;;;;;;14.88;12.07;;;15.00;99.90;;;;;;2082298;28;20103;-73
2023/09/08 04:16:36;;;;;;;16.10;11.80;;;15.00;99.90;;;;;;2094244;28;20029;-74
2023/09/08 04:17:37;;;;;;;16.52;12.48;;;15.00;99.90;;;;;;2093434;28;20584;-75
2023/09/08 04:18:38;;;;;;;15.43;12.15;;;15.00;99.90;;;;;;2076955;28;20029;-75
2023/09/08 04:19:38;;;;;;;15.88;12.15;;;15.00;99.90;;;;;;2088019;28;20495;-76
2023/09/08 04:20:39;;;;;;;15.60;11.95;;;15.00;99.90;;;;;;2093787;28;20032;-73
2023/09/08 04:21:41;;;;;;;16.98;12.02;;;15.00;99.90;;;;;;2088479;28;20043;-74
2023/09/08 04:22:41;;;;;;;15.70;12.30;;;15.00;99.90;;;;;;2083883;28;20048;-73
2023/09/08 04:23:42;;;;;;;17.38;12.43;;;15.00;99.90;;;;;;2083204;28;20048;-73
2023/09/08 04:24:43;;;;;;;17.50;12.80;;;15.00;99.90;;;;;;2092621;28;20021;-73
2023/09/08 04:25:43;;;;;;;14.05;11.80;;;15.00;99.90;;;;;;2088914;28;20029;-73
2023/09/08 04:26:44;;;;;;;18.85;13.02;;;15.00;99.90;;;;;;2092344;28;20135;-73
2023/09/08 04:27:45;;;;;;;16.08;12.32;;;15.00;99.90;;;;;;2080010;28;20028;-73
2023/09/08 04:28:46;;;;;;;16.23;12.60;;;14.90;99.90;;;;;;2094073;28;20135;-72
2023/09/08 04:29:46;;;;;;;17.25;12.48;;;15.00;99.90;;;;;;2086671;28;20025;-73
2023/09/08 04:30:47;;;;;;;19.67;12.60;;;15.00;99.90;;;;;;2075517;28;20045;-73
2023/09/08 04:31:47;;;;;;;15.68;12.35;;;15.00;99.90;;;;;;2095660;28;20035;-73
2023/09/08 04:32:48;;;;;;;16.42;12.18;;;15.00;99.90;;;;;;2095572;28;20028;-73
2023/09/08 04:33:49;;;;;;;16.30;12.25;;;15.00;99.90;;;;;;2083720;28;20037;-73
2023/09/08 04:34:49;;;;;;;17.48;12.43;;;15.00;99.90;;;;;;2089188;28;20128;-74
2023/09/08 04:35:50;;;;;;;16.60;12.70;;;14.90;99.90;;;;;;2089418;28;20028;-72
2023/09/08 04:36:50;;;;;;;17.42;12.73;;;15.00;99.90;;;;;;2101022;28;20546;-72
2023/09/08 04:37:51;;;;;;;15.48;12.40;;;15.00;99.90;;;;;;2095834;28;20466;-73
2023/09/08 04:38:52;;;;;;;20.52;13.10;;;15.00;99.90;;;;;;2095183;28;20104;-73
2023/09/08 04:39:53;;;;;;;18.05;13.35;;;15.00;99.90;;;;;;2084314;28;20427;-74
2023/09/08 04:40:53;;;;;;;17.77;13.23;;;15.00;99.90;;;;;;2084426;28;20039;-73
2023/09/08 04:41:54;;;;;;;15.60;13.13;;;15.00;99.90;;;;;;2091873;28;20028;-73
2023/09/08 04:42:54;;;;;;;21.60;13.63;;;15.00;99.90;;;;;;2091094;28;20058;-73
2023/09/08 04:43:58;;;;;;;19.05;13.05;;;15.00;99.90;;;;;;2086041;28;20116;-75
2023/09/08 04:44:58;;;;;;;21.00;12.68;;;15.00;99.90;;;;;;2092060;28;20434;-73
2023/09/08 04:45:59;;;;;;;17.95;12.68;;;15.00;99.90;;;;;;2085598;28;20028;-73
2023/09/08 04:46:59;;;;;;;19.17;12.73;;;15.00;99.90;;;;;;2088711;28;20036;-74
2023/09/08 04:48:00;;;;;;;19.75;12.57;;;15.00;99.90;;;;;;2080136;28;20865;-74
2023/09/08 04:49:01;;;;;;;18.85;13.00;;;15.10;99.90;;;;;;2085295;28;20043;-74
2023/09/08 04:50:02;;;;;;;17.40;12.85;;;15.10;99.90;;;;;;2084905;28;20155;-73
2023/09/08 04:51:02;;;;;;;20.23;13.07;;;15.10;99.90;;;;;;2096029;28;20487;-74
2023/09/08 04:52:04;;;;;;;18.23;12.68;;;15.10;99.90;;;;;;2086715;28;20119;-75
2023/09/08 04:53:07;;;;;;;20.10;13.30;;;15.10;99.90;;;;;;2075076;28;20031;-73
2023/09/08 04:54:08;;;;;;;20.30;13.68;;;15.10;99.90;;;;;;2081502;28;20021;-75
2023/09/08 04:55:10;;;;;;;16.23;12.27;;;15.10;99.90;;;;;;2092241;28;20028;-72
2023/09/08 04:56:13;;;;;;;20.38;13.52;;;15.20;99.90;;;;;;2083712;28;20049;-73
2023/09/08 04:57:14;;;;;;;19.13;12.73;;;15.20;99.90;;;;;;2085029;28;20066;-73
2023/09/08 04:58:15;;;;;;;20.35;13.23;;;15.20;99.90;;;;;;2087861;28;20190;-73
2023/09/08 04:59:16;;;;;;;20.42;13.07;;;15.20;99.90;;;;;;2089146;28;20025;-72
2023/09/08 05:00:17;;;;;;;19.63;13.18;;;15.20;99.90;;;;;;2091529;28;20020;-72
2023/09/08 05:01:18;;;;;;;18.85;12.63;;;15.20;99.90;;;;;;2087542;28;20063;-73
2023/09/08 05:02:19;;;;;;;18.67;13.60;;;15.20;99.90;;;;;;2091061;28;20020;-73
2023/09/08 05:03:20;;;;;;;18.25;12.93;;;15.20;99.90;;;;;;2083224;28;20040;-73
2023/09/08 05:04:21;;;;;;;21.63;13.27;;;15.20;99.90;;;;;;2096155;28;20031;-74
2023/09/08 05:05:22;;;;;;;18.17;12.43;;;15.30;99.90;;;;;;2091862;28;20035;-74
2023/09/08 05:06:22;;;;;;;19.90;12.70;;;15.40;99.90;;;;;;2091257;28;20032;-74
2023/09/08 05:07:23;;;;;;;20.20;12.82;;;15.50;99.90;;;;;;2092424;28;20378;-74
2023/09/08 05:08:24;;;;;;;20.15;12.65;;;15.60;99.90;;;;;;2095500;28;20103;-75
2023/09/08 05:09:25;;;;;;;21.35;12.88;;;15.80;99.90;;;;;;2082595;28;20393;-75
2023/09/08 05:10:26;;;;;;;17.20;12.00;;;15.80;99.90;;;;;;2083583;28;20053;-73